createdAt,value
2023-02-13T00:00:26.360Z,43.09
2023-02-13T00:01:26.363Z,39.80
2023-02-13T00:02:26.360Z,64.22
2023-02-13T00:03:26.392Z,48.57
2023-02-13T00:04:26.350Z,50.37
2023-02-13T00:05:26.317Z,49.83
2023-02-13T00:06:26.312Z,47.98
2023-02-13T00:07:26.308Z,41.34
2023-02-13T00:08:26.301Z,40.35
2023-02-13T00:09:26.309Z,51.52
2023-02-13T00:10:26.281Z,40.38
2023-02-13T00:11:26.274Z,48.16
2023-02-13T00:12:26.272Z,45.68
2023-02-13T00:13:26.257Z,61.78
2023-02-13T00:14:26.272Z,56.91
2023-02-13T00:15:26.299Z,47.12
2023-02-13T00:16:26.228Z,39.01
2023-02-13T00:17:26.229Z,44.98
2023-02-13T00:18:26.223Z,44.31
2023-02-13T00:19:26.234Z,38.27
2023-02-13T00:20:26.205Z,56.41
2023-02-13T00:21:26.192Z,55.41
2023-02-13T00:22:26.205Z,49.46
2023-02-13T00:23:26.178Z,47.96
2023-02-13T00:24:26.198Z,40.02
2023-02-13T00:25:26.158Z,49.66
2023-02-13T00:26:26.159Z,62.02
2023-02-13T00:27:27.147Z,39.72
2023-02-13T00:28:26.174Z,39.45
2023-02-13T00:29:26.187Z,39.29
2023-02-13T00:30:26.120Z,45.34
2023-02-13T00:31:26.248Z,38.69
2023-02-13T00:32:26.101Z,38.56
2023-02-13T00:33:26.094Z,50.05
2023-02-13T00:34:26.114Z,43.47
2023-02-13T00:35:26.083Z,37.81
2023-02-13T00:36:26.069Z,37.96
2023-02-13T00:37:26.066Z,54.76
2023-02-13T00:38:26.057Z,45.51
2023-02-13T00:39:26.070Z,47.42
2023-02-13T00:40:26.041Z,50.78
2023-02-13T00:41:26.029Z,54.78
2023-02-13T00:42:26.021Z,63.67
2023-02-13T00:43:26.016Z,52.59
2023-02-13T00:44:26.033Z,41.58
2023-02-13T00:45:26.000Z,48.05
2023-02-13T00:46:26.017Z,42.30
2023-02-13T00:47:25.983Z,45.97
2023-02-13T00:48:25.976Z,57.78
2023-02-13T00:49:26.003Z,46.01
2023-02-13T00:50:25.962Z,39.65
2023-02-13T00:51:25.956Z,60.21
2023-02-13T00:52:25.945Z,45.70
2023-02-13T00:53:25.939Z,48.03
2023-02-13T00:54:25.955Z,51.62
2023-02-13T00:55:25.928Z,48.60
2023-02-13T00:56:25.914Z,51.28
2023-02-13T00:57:25.901Z,42.79
2023-02-13T00:58:26.919Z,50.62
2023-02-13T00:59:25.911Z,40.80
2023-02-13T01:00:25.880Z,43.66
2023-02-13T01:01:25.936Z,42.74
2023-02-13T01:02:25.863Z,52.07
2023-02-13T01:03:25.893Z,42.31
2023-02-13T01:04:25.890Z,51.59
2023-02-13T01:05:25.840Z,40.71
2023-02-13T01:06:25.837Z,47.51
2023-02-13T01:07:25.825Z,41.42
2023-02-13T01:08:25.823Z,52.92
2023-02-13T01:09:25.844Z,52.78
2023-02-13T01:10:25.802Z,65.48
2023-02-13T01:11:25.814Z,51.46
2023-02-13T01:12:25.786Z,58.56
2023-02-13T01:13:25.783Z,39.60
2023-02-13T01:14:25.803Z,44.45
2023-02-13T01:15:25.766Z,41.74
2023-02-13T01:16:25.779Z,52.40
2023-02-13T01:17:25.748Z,53.42
2023-02-13T01:18:25.747Z,47.03
2023-02-13T01:19:25.762Z,54.04
2023-02-13T01:20:25.724Z,55.28
2023-02-13T01:21:25.717Z,42.81
2023-02-13T01:22:25.711Z,45.94
2023-02-13T01:23:25.707Z,46.43
2023-02-13T01:24:25.717Z,46.04
2023-02-13T01:25:25.694Z,45.57
2023-02-13T01:26:25.674Z,39.63
2023-02-13T01:27:25.678Z,39.99
2023-02-13T01:28:25.703Z,50.58
2023-02-13T01:29:25.681Z,42.91
2023-02-13T01:30:25.648Z,50.29
2023-02-13T01:31:25.747Z,40.14
2023-02-13T01:32:25.642Z,49.18
2023-02-13T01:33:25.630Z,58.06
2023-02-13T01:34:25.647Z,40.25
2023-02-13T01:35:25.612Z,46.29
2023-02-13T01:36:25.607Z,46.84
2023-02-13T01:37:25.589Z,41.62
2023-02-13T01:38:25.582Z,39.49
2023-02-13T01:39:25.600Z,45.61
2023-02-13T01:40:25.576Z,56.57
2023-02-13T01:41:25.553Z,50.81
2023-02-13T01:42:25.553Z,59.03
2023-02-13T01:43:25.556Z,49.13
2023-02-13T01:44:25.571Z,54.12
2023-02-13T01:45:25.526Z,55.79
2023-02-13T01:46:25.552Z,52.25
2023-02-13T01:47:25.506Z,43.40
2023-02-13T01:48:25.499Z,53.23
2023-02-13T01:49:25.520Z,42.68
2023-02-13T01:50:25.483Z,46.12
2023-02-13T01:51:25.481Z,47.37
2023-02-13T01:52:25.465Z,50.89
2023-02-13T01:53:25.483Z,41.59
2023-02-13T01:54:25.451Z,42.88
2023-02-13T01:55:25.470Z,44.14
2023-02-13T01:56:25.433Z,41.69
2023-02-13T01:57:25.434Z,52.24
2023-02-13T01:58:25.421Z,42.03
2023-02-13T01:59:25.409Z,56.46
2023-02-13T02:00:25.430Z,46.98
2023-02-13T02:01:25.446Z,46.43
2023-02-13T02:02:25.458Z,46.32
2023-02-13T02:03:25.380Z,52.83
2023-02-13T02:04:25.378Z,39.78
2023-02-13T02:05:25.392Z,53.40
2023-02-13T02:06:25.357Z,54.94
2023-02-13T02:07:25.364Z,47.71
2023-02-13T02:08:25.341Z,42.72
2023-02-13T02:09:25.334Z,45.95
2023-02-13T02:10:25.351Z,47.60
2023-02-13T02:11:25.317Z,50.29
2023-02-13T02:12:25.310Z,42.26
2023-02-13T02:13:25.316Z,57.02
2023-02-13T02:14:25.298Z,59.17
2023-02-13T02:15:25.314Z,53.64
2023-02-13T02:16:25.359Z,47.24
2023-02-13T02:17:25.276Z,53.73
2023-02-13T02:18:25.279Z,49.28
2023-02-13T02:19:25.261Z,53.61
2023-02-13T02:20:25.280Z,56.50
2023-02-13T02:21:25.239Z,42.60
2023-02-13T02:22:25.242Z,48.94
2023-02-13T02:23:25.225Z,57.00
2023-02-13T02:24:25.215Z,59.70
2023-02-13T02:25:25.238Z,43.21
2023-02-13T02:26:25.205Z,39.63
2023-02-13T02:27:25.217Z,46.02
2023-02-13T02:28:25.242Z,46.41
2023-02-13T02:29:25.192Z,39.98
2023-02-13T02:30:25.244Z,50.01
2023-02-13T02:31:25.214Z,54.89
2023-02-13T02:32:25.152Z,41.50
2023-02-13T02:33:25.148Z,40.26
2023-02-13T02:34:25.138Z,47.08
2023-02-13T02:35:25.155Z,52.10
2023-02-13T02:36:25.122Z,45.52
2023-02-13T02:37:25.118Z,55.90
2023-02-13T02:38:25.106Z,53.44
2023-02-13T02:39:25.093Z,61.59
2023-02-13T02:40:25.121Z,52.25
2023-02-13T02:41:25.076Z,52.88
2023-02-13T02:42:25.078Z,50.38
2023-02-13T02:43:25.075Z,61.51
2023-02-13T02:44:25.059Z,64.94
2023-02-13T02:45:25.078Z,56.38
2023-02-13T02:46:25.054Z,46.35
2023-02-13T02:47:25.034Z,41.07
2023-02-13T02:48:25.023Z,47.64
2023-02-13T02:49:25.012Z,60.07
2023-02-13T02:50:25.052Z,56.16
2023-02-13T02:51:25.000Z,48.69
2023-02-13T02:52:24.992Z,44.26
2023-02-13T02:53:24.978Z,40.75
2023-02-13T02:54:24.971Z,41.36
2023-02-13T02:55:24.991Z,46.05
2023-02-13T02:56:24.953Z,60.10
2023-02-13T02:57:24.958Z,56.15
2023-02-13T02:58:24.941Z,57.29
2023-02-13T02:59:24.936Z,51.22
2023-02-13T03:00:24.960Z,54.79
2023-02-13T03:01:24.986Z,51.48
2023-02-13T03:02:24.913Z,60.93
2023-02-13T03:03:24.899Z,50.04
2023-02-13T03:04:25.925Z,52.16
2023-02-13T03:05:24.910Z,60.21
2023-02-13T03:06:24.876Z,52.88
2023-02-13T03:07:24.871Z,57.27
2023-02-13T03:08:24.858Z,62.84
2023-02-13T03:09:24.851Z,50.26
2023-02-13T03:10:24.869Z,61.27
2023-02-13T03:11:24.831Z,53.29
2023-02-13T03:12:24.831Z,64.12
2023-02-13T03:13:24.831Z,53.04
2023-02-13T03:14:24.815Z,43.34
2023-02-13T03:15:24.829Z,54.61
2023-02-13T03:16:24.827Z,42.74
2023-02-13T03:17:24.796Z,56.95
2023-02-13T03:18:24.775Z,55.45
2023-02-13T03:19:24.775Z,47.21
2023-02-13T03:20:24.791Z,46.75
2023-02-13T03:21:24.757Z,50.94
2023-02-13T03:22:24.752Z,60.72
2023-02-13T03:23:24.743Z,58.44
2023-02-13T03:24:24.733Z,58.02
2023-02-13T03:25:24.753Z,51.70
2023-02-13T03:26:24.717Z,51.19
2023-02-13T03:27:24.711Z,51.18
2023-02-13T03:28:24.740Z,58.66
2023-02-13T03:29:24.688Z,55.13
2023-02-13T03:30:24.740Z,51.59
2023-02-13T03:31:24.725Z,53.82
2023-02-13T03:32:24.667Z,48.62
2023-02-13T03:33:24.657Z,50.08
2023-02-13T03:34:24.651Z,55.14
2023-02-13T03:35:24.670Z,53.16
2023-02-13T03:36:24.626Z,55.79
2023-02-13T03:37:25.628Z,53.09
2023-02-13T03:38:24.615Z,53.71
2023-02-13T03:39:24.621Z,62.38
2023-02-13T03:40:24.872Z,61.26
2023-02-13T03:41:24.598Z,58.40
2023-02-13T03:42:24.584Z,60.34
2023-02-13T03:43:24.596Z,56.62
2023-02-13T03:44:24.574Z,54.07
2023-02-13T03:45:24.608Z,58.41
2023-02-13T03:46:24.560Z,52.14
2023-02-13T03:47:24.548Z,62.25
2023-02-13T03:48:24.543Z,58.82
2023-02-13T03:49:24.540Z,55.30
2023-02-13T03:50:24.528Z,61.50
2023-02-13T03:51:24.547Z,62.46
2023-02-13T03:52:24.513Z,60.53
2023-02-13T03:53:24.513Z,61.44
2023-02-13T03:54:24.498Z,59.06
2023-02-13T03:55:24.491Z,60.51
2023-02-13T03:56:24.510Z,62.62
2023-02-13T03:57:24.476Z,58.43
2023-02-13T03:58:24.470Z,54.88
2023-02-13T03:59:24.471Z,58.95
2023-02-13T04:00:24.452Z,60.53
2023-02-13T04:01:24.494Z,55.49
2023-02-13T04:02:24.484Z,57.24
2023-02-13T04:03:24.433Z,57.69
2023-02-13T04:04:24.432Z,56.48
2023-02-13T04:05:24.416Z,50.83
2023-02-13T04:06:24.435Z,56.66
2023-02-13T04:07:24.400Z,52.46
2023-02-13T04:08:24.398Z,62.42
2023-02-13T04:09:24.382Z,57.65
2023-02-13T04:10:24.377Z,53.27
2023-02-13T04:11:24.393Z,48.32
2023-02-13T04:12:24.361Z,57.20
2023-02-13T04:13:24.352Z,57.66
2023-02-13T04:14:24.356Z,63.98
2023-02-13T04:15:24.340Z,57.67
2023-02-13T04:16:24.381Z,61.02
2023-02-13T04:17:24.329Z,59.16
2023-02-13T04:18:24.315Z,58.86
2023-02-13T04:19:24.420Z,60.95
2023-02-13T04:20:24.309Z,57.56
2023-02-13T04:21:24.327Z,54.21
2023-02-13T04:22:24.284Z,57.91
2023-02-13T04:23:24.280Z,60.51
2023-02-13T04:24:24.273Z,58.65
2023-02-13T04:25:24.267Z,59.79
2023-02-13T04:26:24.277Z,58.14
2023-02-13T04:27:24.243Z,60.80
2023-02-13T04:28:24.300Z,62.85
2023-02-13T04:29:24.229Z,63.33
2023-02-13T04:30:24.305Z,54.86
2023-02-13T04:31:24.306Z,57.71
2023-02-13T04:32:24.202Z,62.21
2023-02-13T04:33:24.194Z,62.29
2023-02-13T04:34:24.186Z,57.40
2023-02-13T04:35:24.180Z,52.43
2023-02-13T04:36:24.196Z,59.83
2023-02-13T04:37:24.165Z,61.79
2023-02-13T04:38:24.154Z,62.04
2023-02-13T04:39:24.156Z,61.43
2023-02-13T04:40:24.136Z,60.40
2023-02-13T04:41:24.158Z,65.17
2023-02-13T04:42:24.125Z,60.47
2023-02-13T04:43:24.119Z,62.09
2023-02-13T04:44:24.106Z,55.46
2023-02-13T04:45:24.106Z,63.45
2023-02-13T04:46:24.185Z,58.33
2023-02-13T04:47:24.087Z,57.79
2023-02-13T04:48:24.075Z,59.52
2023-02-13T04:49:24.070Z,62.65
2023-02-13T04:50:24.067Z,59.14
2023-02-13T04:51:24.083Z,58.54
2023-02-13T04:52:24.043Z,57.73
2023-02-13T04:53:24.043Z,61.64
2023-02-13T04:54:24.034Z,60.80
2023-02-13T04:55:24.025Z,59.70
2023-02-13T04:56:24.018Z,54.38
2023-02-13T04:57:24.037Z,64.58
2023-02-13T04:58:24.018Z,58.80
2023-02-13T04:59:23.983Z,52.46
2023-02-13T05:00:24.991Z,61.63
2023-02-13T05:01:24.048Z,61.01
2023-02-13T05:02:24.005Z,55.06
2023-02-13T05:03:23.966Z,59.43
2023-02-13T05:04:23.970Z,55.66
2023-02-13T05:05:23.951Z,57.91
2023-02-13T05:06:23.940Z,53.64
2023-02-13T05:07:23.968Z,53.12
2023-02-13T05:08:23.922Z,56.11
2023-02-13T05:09:23.913Z,59.00
2023-02-13T05:10:23.914Z,61.96
2023-02-13T05:11:23.903Z,56.96
2023-02-13T05:12:23.912Z,59.08
2023-02-13T05:13:23.883Z,62.38
2023-02-13T05:14:23.877Z,61.37
2023-02-13T05:15:23.864Z,58.50
2023-02-13T05:16:23.857Z,58.31
2023-02-13T05:17:24.298Z,61.18
2023-02-13T05:18:23.839Z,61.13
2023-02-13T05:19:23.831Z,63.95
2023-02-13T05:20:23.825Z,62.39
2023-02-13T05:21:23.814Z,60.14
2023-02-13T05:22:23.844Z,57.93
2023-02-13T05:23:23.865Z,60.73
2023-02-13T05:24:23.790Z,61.54
2023-02-13T05:25:23.794Z,61.84
2023-02-13T05:26:23.780Z,62.88
2023-02-13T05:27:24.792Z,60.91
2023-02-13T05:28:23.877Z,59.77
2023-02-13T05:29:23.757Z,60.78
2023-02-13T05:30:23.756Z,61.08
2023-02-13T05:31:23.843Z,63.26
2023-02-13T05:32:23.750Z,64.35
2023-02-13T05:33:23.725Z,62.41
2023-02-13T05:34:23.717Z,63.84
2023-02-13T05:35:23.707Z,62.29
2023-02-13T05:36:23.712Z,59.75
2023-02-13T05:37:23.715Z,58.78
2023-02-13T05:38:23.687Z,60.51
2023-02-13T05:39:23.671Z,63.74
2023-02-13T05:40:23.676Z,58.63
2023-02-13T05:41:23.664Z,63.72
2023-02-13T05:42:23.675Z,62.14
2023-02-13T05:43:23.643Z,59.85
2023-02-13T05:44:23.638Z,64.93
2023-02-13T05:45:23.627Z,61.54
2023-02-13T05:46:23.668Z,60.30
2023-02-13T05:47:23.638Z,63.97
2023-02-13T05:48:23.605Z,62.30
2023-02-13T05:49:23.596Z,63.56
2023-02-13T05:50:23.588Z,61.90
2023-02-13T05:51:23.588Z,62.02
2023-02-13T05:52:23.610Z,61.03
2023-02-13T05:53:23.573Z,64.26
2023-02-13T05:54:23.571Z,63.36
2023-02-13T05:55:23.550Z,60.99
2023-02-13T05:56:23.549Z,63.20
2023-02-13T05:57:23.566Z,61.86
2023-02-13T05:58:23.540Z,60.77
2023-02-13T05:59:24.105Z,65.78
2023-02-13T06:00:24.514Z,64.00
2023-02-13T06:01:23.506Z,60.93
2023-02-13T06:02:23.558Z,63.53
2023-02-13T06:03:23.576Z,64.77
2023-02-13T06:04:23.484Z,61.96
2023-02-13T06:05:23.476Z,63.17
2023-02-13T06:06:23.466Z,59.33
2023-02-13T06:07:23.480Z,59.63
2023-02-13T06:08:23.449Z,64.98
2023-02-13T06:09:23.442Z,63.91
2023-02-13T06:10:23.436Z,62.48
2023-02-13T06:11:23.423Z,61.72
2023-02-13T06:12:23.413Z,58.18
2023-02-13T06:13:23.435Z,62.44
2023-02-13T06:14:23.398Z,63.00
2023-02-13T06:15:24.397Z,62.96
2023-02-13T06:16:23.436Z,62.20
2023-02-13T06:17:23.378Z,61.27
2023-02-13T06:18:23.393Z,62.89
2023-02-13T06:19:23.365Z,62.17
2023-02-13T06:20:23.352Z,64.36
2023-02-13T06:21:23.357Z,64.11
2023-02-13T06:22:23.339Z,61.07
2023-02-13T06:23:23.362Z,62.65
2023-02-13T06:24:23.321Z,61.36
2023-02-13T06:25:23.311Z,64.30
2023-02-13T06:26:23.301Z,63.94
2023-02-13T06:27:23.321Z,64.49
2023-02-13T06:28:23.336Z,63.14
2023-02-13T06:29:23.280Z,62.85
2023-02-13T06:30:23.286Z,61.52
2023-02-13T06:31:23.392Z,60.61
2023-02-13T06:32:23.257Z,63.66
2023-02-13T06:33:23.281Z,60.37
2023-02-13T06:34:23.237Z,60.73
2023-02-13T06:35:24.232Z,63.08
2023-02-13T06:36:23.223Z,62.44
2023-02-13T06:37:23.211Z,62.80
2023-02-13T06:38:23.232Z,64.25
2023-02-13T06:39:23.201Z,63.53
2023-02-13T06:40:23.203Z,66.11
2023-02-13T06:41:23.186Z,61.98
2023-02-13T06:42:23.178Z,64.01
2023-02-13T06:43:23.191Z,64.18
2023-02-13T06:44:23.180Z,65.00
2023-02-13T06:45:23.155Z,64.98
2023-02-13T06:46:23.294Z,64.63
2023-02-13T06:47:23.135Z,63.31
2023-02-13T06:48:23.180Z,63.08
2023-02-13T06:49:23.176Z,61.13
2023-02-13T06:50:23.118Z,63.32
2023-02-13T06:51:23.109Z,63.80
2023-02-13T06:52:23.094Z,64.71
2023-02-13T06:53:23.126Z,63.09
2023-02-13T06:54:33.901Z,63.90
2023-02-13T06:55:25.070Z,62.39
2023-02-13T06:56:23.066Z,63.16
2023-02-13T06:57:23.059Z,63.10
2023-02-13T06:58:23.089Z,61.37
2023-02-13T06:59:23.034Z,61.76
2023-02-13T07:00:23.028Z,60.53
2023-02-13T07:01:23.067Z,64.17
2023-02-13T07:02:23.023Z,59.01
2023-02-13T07:03:23.031Z,61.92
2023-02-13T07:04:23.000Z,62.20
2023-02-13T07:05:22.988Z,56.82
2023-02-13T07:06:22.990Z,53.60
2023-02-13T07:07:22.977Z,61.92
2023-02-13T07:08:23.000Z,59.34
2023-02-13T07:09:22.958Z,63.26
2023-02-13T07:10:22.966Z,61.35
2023-02-13T07:11:22.943Z,61.18
2023-02-13T07:12:22.941Z,54.21
2023-02-13T07:13:22.957Z,63.42
2023-02-13T07:14:22.923Z,57.85
2023-02-13T07:15:22.923Z,62.67
2023-02-13T07:16:22.961Z,65.36
2023-02-13T07:17:22.903Z,62.34
2023-02-13T07:18:22.917Z,63.46
2023-02-13T07:19:22.885Z,60.82
2023-02-13T07:20:22.879Z,59.79
2023-02-13T07:21:22.865Z,63.58
2023-02-13T07:22:22.872Z,61.71
2023-02-13T07:23:22.900Z,60.66
2023-02-13T07:24:22.844Z,64.49
2023-02-13T07:25:22.841Z,62.77
2023-02-13T07:26:22.830Z,60.25
2023-02-13T07:27:22.826Z,59.99
2023-02-13T07:28:22.887Z,63.09
2023-02-13T07:29:22.808Z,61.64
2023-02-13T07:30:22.810Z,60.71
2023-02-13T07:31:22.852Z,60.36
2023-02-13T07:32:22.784Z,58.99
2023-02-13T07:33:22.801Z,64.02
2023-02-13T07:34:22.780Z,60.87
2023-02-13T07:35:22.763Z,62.27
2023-02-13T07:36:22.751Z,63.66
2023-02-13T07:37:22.746Z,64.00
2023-02-13T07:38:22.762Z,62.36
2023-02-13T07:39:22.731Z,63.75
2023-02-13T07:40:22.728Z,62.72
2023-02-13T07:41:22.717Z,60.40
2023-02-13T07:42:22.707Z,66.39
2023-02-13T07:43:22.731Z,63.66
2023-02-13T07:44:22.696Z,63.48
2023-02-13T07:45:22.680Z,64.82
2023-02-13T07:46:22.716Z,60.89
2023-02-13T07:47:22.694Z,63.81
2023-02-13T07:48:22.694Z,60.70
2023-02-13T07:49:22.666Z,63.95
2023-02-13T07:50:22.653Z,59.42
2023-02-13T07:51:22.646Z,62.97
2023-02-13T07:52:22.637Z,61.76
2023-02-13T07:53:22.658Z,61.51
2023-02-13T07:54:22.626Z,62.48
2023-02-13T07:55:22.608Z,61.83
2023-02-13T07:56:22.612Z,63.17
2023-02-13T07:57:22.613Z,61.67
2023-02-13T07:58:22.617Z,61.77
2023-02-13T07:59:22.579Z,61.61
2023-02-13T08:00:22.574Z,63.26
2023-02-13T08:01:22.696Z,62.79
2023-02-13T08:02:22.556Z,61.15
2023-02-13T08:03:22.580Z,63.24
2023-02-13T08:04:23.877Z,60.92
2023-02-13T08:05:22.533Z,58.82
2023-02-13T08:06:22.523Z,62.88
2023-02-13T08:07:22.524Z,63.03
2023-02-13T08:08:22.510Z,65.60
2023-02-13T08:09:22.529Z,63.52
2023-02-13T08:10:22.498Z,57.63
2023-02-13T08:11:22.485Z,60.32
2023-02-13T08:12:22.475Z,63.03
2023-02-13T08:13:22.460Z,60.80
2023-02-13T08:14:22.493Z,64.58
2023-02-13T08:15:22.456Z,64.05
2023-02-13T08:16:22.478Z,58.85
2023-02-13T08:17:22.430Z,63.52
2023-02-13T08:18:22.435Z,61.84
2023-02-13T08:19:22.445Z,65.48
2023-02-13T08:20:22.416Z,57.63
2023-02-13T08:21:22.396Z,61.60
2023-02-13T08:22:22.388Z,65.35
2023-02-13T08:23:22.396Z,60.62
2023-02-13T08:24:22.422Z,57.35
2023-02-13T08:25:22.379Z,60.34
2023-02-13T08:26:22.377Z,62.06
2023-02-13T08:27:22.348Z,60.70
2023-02-13T08:28:22.379Z,61.41
2023-02-13T08:29:22.355Z,59.61
2023-02-13T08:30:22.317Z,62.98
2023-02-13T08:31:22.395Z,60.36
2023-02-13T08:32:22.367Z,61.73
2023-02-13T08:33:22.302Z,63.69
2023-02-13T08:34:22.315Z,58.22
2023-02-13T08:35:22.283Z,61.19
2023-02-13T08:36:22.297Z,61.10
2023-02-13T08:37:22.263Z,62.34
2023-02-13T08:38:22.264Z,62.28
2023-02-13T08:39:22.274Z,62.35
2023-02-13T08:40:24.477Z,61.60
2023-02-13T08:41:22.228Z,60.26
2023-02-13T08:42:22.227Z,61.21
2023-02-13T08:43:22.222Z,64.25
2023-02-13T08:44:22.246Z,62.61
2023-02-13T08:45:22.200Z,59.06
2023-02-13T08:46:22.286Z,60.29
2023-02-13T08:47:22.201Z,61.23
2023-02-13T08:48:22.187Z,61.76
2023-02-13T08:49:22.198Z,58.76
2023-02-13T08:50:22.164Z,60.21
2023-02-13T08:51:22.167Z,60.79
2023-02-13T08:52:22.158Z,61.48
2023-02-13T08:53:22.146Z,59.33
2023-02-13T08:54:22.169Z,61.36
2023-02-13T08:55:22.127Z,62.78
2023-02-13T08:56:22.113Z,62.79
2023-02-13T08:57:22.112Z,58.10
2023-02-13T08:58:22.098Z,59.15
2023-02-13T08:59:22.121Z,59.89
2023-02-13T09:00:22.097Z,63.25
2023-02-13T09:01:22.127Z,55.88
2023-02-13T09:02:22.101Z,59.43
2023-02-13T09:03:22.060Z,61.64
2023-02-13T09:04:22.045Z,60.71
2023-02-13T09:05:23.070Z,60.13
2023-02-13T09:06:22.045Z,62.83
2023-02-13T09:07:22.028Z,63.38
2023-02-13T09:08:22.036Z,59.93
2023-02-13T09:09:22.012Z,60.18
2023-02-13T09:10:22.031Z,64.10
2023-02-13T09:11:21.998Z,63.37
2023-02-13T09:12:21.997Z,56.93
2023-02-13T09:13:21.981Z,58.76
2023-02-13T09:14:24.207Z,62.15
2023-02-13T09:15:21.991Z,58.13
2023-02-13T09:16:21.981Z,58.58
2023-02-13T09:17:22.951Z,60.62
2023-02-13T09:18:21.942Z,59.61
2023-02-13T09:19:21.940Z,60.24
2023-02-13T09:20:21.956Z,59.92
2023-02-13T09:21:21.929Z,58.93
2023-02-13T09:22:21.948Z,66.14
2023-02-13T09:23:21.909Z,60.58
2023-02-13T09:24:21.901Z,57.47
2023-02-13T09:25:21.918Z,58.24
2023-02-13T09:26:21.888Z,60.90
2023-02-13T09:27:21.884Z,59.44
2023-02-13T09:28:21.921Z,62.57
2023-02-13T09:29:21.861Z,62.97
2023-02-13T09:30:21.883Z,58.75
2023-02-13T09:31:22.010Z,60.27
2023-02-13T09:32:21.838Z,64.74
2023-02-13T09:33:21.832Z,62.36
2023-02-13T09:34:21.821Z,64.40
2023-02-13T09:35:21.852Z,62.04
2023-02-13T09:36:21.807Z,62.37
2023-02-13T09:37:21.800Z,62.13
2023-02-13T09:38:21.792Z,64.99
2023-02-13T09:39:21.793Z,62.33
2023-02-13T09:40:21.803Z,60.86
2023-02-13T09:41:21.772Z,62.76
2023-02-13T09:42:21.763Z,58.32
2023-02-13T09:43:21.748Z,63.20
2023-02-13T09:44:21.747Z,63.46
2023-02-13T09:45:21.760Z,63.96
2023-02-13T09:46:21.795Z,62.88
2023-02-13T09:47:21.712Z,60.77
2023-02-13T09:48:21.709Z,60.92
2023-02-13T09:49:21.702Z,60.69
2023-02-13T09:50:21.799Z,59.77
2023-02-13T09:51:21.680Z,62.52
2023-02-13T09:52:21.686Z,58.48
2023-02-13T09:53:21.673Z,60.11
2023-02-13T09:54:21.661Z,56.87
2023-02-13T09:55:21.691Z,63.73
2023-02-13T09:56:21.645Z,61.90
2023-02-13T09:57:21.731Z,58.78
2023-02-13T09:58:21.629Z,62.82
2023-02-13T09:59:21.625Z,61.68
2023-02-13T10:00:21.646Z,62.87
2023-02-13T10:01:21.641Z,62.91
2023-02-13T10:02:22.603Z,59.76
2023-02-13T10:03:21.600Z,60.82
2023-02-13T10:04:21.588Z,60.84
2023-02-13T10:05:21.655Z,56.72
2023-02-13T10:06:21.599Z,61.49
2023-02-13T10:07:21.568Z,62.44
2023-02-13T10:08:21.568Z,60.17
2023-02-13T10:09:21.557Z,62.38
2023-02-13T10:10:21.589Z,58.59
2023-02-13T10:11:22.405Z,59.76
2023-02-13T10:12:21.534Z,59.98
2023-02-13T10:13:22.160Z,58.82
2023-02-13T10:14:21.519Z,58.47
2023-02-13T10:15:21.511Z,56.89
2023-02-13T10:16:21.567Z,59.73
2023-02-13T10:17:21.495Z,58.69
2023-02-13T10:18:21.497Z,57.53
2023-02-13T10:19:21.509Z,61.03
2023-02-13T10:20:21.480Z,52.79
2023-02-13T10:21:21.486Z,58.60
2023-02-13T10:22:21.471Z,60.02
2023-02-13T10:23:21.449Z,62.69
2023-02-13T10:24:21.444Z,59.88
2023-02-13T10:25:21.440Z,60.91
2023-02-13T10:26:21.460Z,58.28
2023-02-13T10:27:21.413Z,58.27
2023-02-13T10:28:21.458Z,56.45
2023-02-13T10:29:21.396Z,56.48
2023-02-13T10:30:21.396Z,58.51
2023-02-13T10:31:21.511Z,58.19
2023-02-13T10:32:21.522Z,57.62
2023-02-13T10:33:21.362Z,56.65
2023-02-13T10:34:21.355Z,59.81
2023-02-13T10:35:21.346Z,55.69
2023-02-13T10:36:21.372Z,55.75
2023-02-13T10:37:21.329Z,50.91
2023-02-13T10:38:21.321Z,55.12
2023-02-13T10:39:21.316Z,58.08
2023-02-13T10:40:21.308Z,57.80
2023-02-13T10:41:21.327Z,54.44
2023-02-13T10:42:21.297Z,58.94
2023-02-13T10:43:21.285Z,58.24
2023-02-13T10:44:21.281Z,58.81
2023-02-13T10:45:21.272Z,56.94
2023-02-13T10:46:21.293Z,60.96
2023-02-13T10:47:21.262Z,54.81
2023-02-13T10:48:21.242Z,57.86
2023-02-13T10:49:21.238Z,58.01
2023-02-13T10:50:21.229Z,57.79
2023-02-13T10:51:21.242Z,56.19
2023-02-13T10:52:21.206Z,59.50
2023-02-13T10:53:21.204Z,60.97
2023-02-13T10:54:21.193Z,60.71
2023-02-13T10:55:21.188Z,57.48
2023-02-13T10:56:21.203Z,59.27
2023-02-13T10:57:21.184Z,59.16
2023-02-13T10:58:21.160Z,54.11
2023-02-13T10:59:21.161Z,56.96
2023-02-13T11:00:21.141Z,55.64
2023-02-13T11:01:21.187Z,54.28
2023-02-13T11:02:21.125Z,57.65
2023-02-13T11:03:21.118Z,57.77
2023-02-13T11:04:21.188Z,59.15
2023-02-13T11:05:21.100Z,54.94
2023-02-13T11:06:21.118Z,54.10
2023-02-13T11:07:21.084Z,57.85
2023-02-13T11:08:21.079Z,56.92
2023-02-13T11:09:21.088Z,61.00
2023-02-13T11:10:21.062Z,57.72
2023-02-13T11:11:21.081Z,52.33
2023-02-13T11:12:21.044Z,56.03
2023-02-13T11:13:21.036Z,57.55
2023-02-13T11:14:21.054Z,60.78
2023-02-13T11:15:21.018Z,58.90
2023-02-13T11:16:21.052Z,56.57
2023-02-13T11:17:21.002Z,60.13
2023-02-13T11:18:21.004Z,57.99
2023-02-13T11:19:20.985Z,58.32
2023-02-13T11:20:20.969Z,58.89
2023-02-13T11:21:22.007Z,60.74
2023-02-13T11:22:20.961Z,57.25
2023-02-13T11:23:20.956Z,59.98
2023-02-13T11:24:20.952Z,60.16
2023-02-13T11:25:20.944Z,59.51
2023-02-13T11:26:20.970Z,56.04
2023-02-13T11:27:22.192Z,54.41
2023-02-13T11:28:21.929Z,51.39
2023-02-13T11:29:21.007Z,60.07
2023-02-13T11:30:20.904Z,60.69
2023-02-13T11:31:21.092Z,57.29
2023-02-13T11:32:21.074Z,58.71
2023-02-13T11:33:20.888Z,61.93
2023-02-13T11:34:20.874Z,59.17
2023-02-13T11:35:20.867Z,57.33
2023-02-13T11:36:20.862Z,60.21
2023-02-13T11:37:20.875Z,61.04
2023-02-13T11:38:20.839Z,61.14
2023-02-13T11:39:20.839Z,57.11
2023-02-13T11:40:20.828Z,59.43
2023-02-13T11:41:20.836Z,57.49
2023-02-13T11:42:20.835Z,60.49
2023-02-13T11:43:20.804Z,59.47
2023-02-13T11:44:20.797Z,59.76
2023-02-13T11:45:20.786Z,62.18
2023-02-13T11:46:20.822Z,60.93
2023-02-13T11:47:20.799Z,57.11
2023-02-13T11:48:20.765Z,57.79
2023-02-13T11:49:20.778Z,59.72
2023-02-13T11:50:20.750Z,57.96
2023-02-13T11:51:20.742Z,58.36
2023-02-13T11:52:20.758Z,59.43
2023-02-13T11:53:20.724Z,59.49
2023-02-13T11:54:20.731Z,60.41
2023-02-13T11:55:20.704Z,59.02
2023-02-13T11:56:21.731Z,59.26
2023-02-13T11:57:20.726Z,58.23
2023-02-13T11:58:20.824Z,59.35
2023-02-13T11:59:20.687Z,61.57
2023-02-13T12:00:20.685Z,56.03
2023-02-13T12:01:20.691Z,57.47
2023-02-13T12:02:20.796Z,59.02
2023-02-13T12:03:20.695Z,57.97
2023-02-13T12:04:20.664Z,59.42
2023-02-13T12:05:20.697Z,62.36
2023-02-13T12:06:20.634Z,56.99
2023-02-13T12:07:20.647Z,60.44
2023-02-13T12:08:20.617Z,59.50
2023-02-13T12:09:20.608Z,60.59
2023-02-13T12:10:20.605Z,58.93
2023-02-13T12:11:20.595Z,55.31
2023-02-13T12:12:20.613Z,57.88
2023-02-13T12:13:20.580Z,55.36
2023-02-13T12:14:20.572Z,58.92
2023-02-13T12:15:20.566Z,56.32
2023-02-13T12:16:20.567Z,59.09
2023-02-13T12:17:30.814Z,59.50
2023-02-13T12:18:22.540Z,62.39
2023-02-13T12:19:20.538Z,60.20
2023-02-13T12:20:20.527Z,56.80
2023-02-13T12:21:20.517Z,58.72
2023-02-13T12:22:20.539Z,62.43
2023-02-13T12:23:20.499Z,59.25
2023-02-13T12:24:20.511Z,62.33
2023-02-13T12:25:20.486Z,59.53
2023-02-13T12:26:20.474Z,59.97
2023-02-13T12:27:20.495Z,60.77
2023-02-13T12:28:20.532Z,59.96
2023-02-13T12:29:20.502Z,56.40
2023-02-13T12:30:21.446Z,54.81
2023-02-13T12:31:20.446Z,54.60
2023-02-13T12:32:20.450Z,56.59
2023-02-13T12:33:20.416Z,60.27
2023-02-13T12:34:20.409Z,60.78
2023-02-13T12:35:20.400Z,58.14
2023-02-13T12:36:20.393Z,60.57
2023-02-13T12:37:20.386Z,57.89
2023-02-13T12:38:20.407Z,57.45
2023-02-13T12:39:20.370Z,60.02
2023-02-13T12:40:20.361Z,63.26
2023-02-13T12:41:20.376Z,58.85
2023-02-13T12:42:20.350Z,61.52
2023-02-13T12:43:20.362Z,58.17
2023-02-13T12:44:20.361Z,57.99
2023-02-13T12:45:20.322Z,60.04
2023-02-13T12:46:20.328Z,58.04
2023-02-13T12:47:20.313Z,56.95
2023-02-13T12:48:20.321Z,60.68
2023-02-13T12:49:20.300Z,57.88
2023-02-13T12:50:21.013Z,59.96
2023-02-13T12:51:20.282Z,60.62
2023-02-13T12:52:20.275Z,58.30